Terminal Aerodrome Forecast
Issued by NWS Green Bay, WI

Home | Current Version | Previous Version | Graphics & Text | Print | Product List | Glossary Off
Versions: 1 2 3 4 5 6 7 8 9 10 11 12 13 14 15 16 17 18 19 20 21 22 23 24 25 26 27 28 29 30 31 32 33 34 35 36 37 38 39 40 41 42 43 44 45 46 47

000
FTUS43 KGRB 220500
TAFGRB
TAF
KGRB 220530Z 2206/2306 08004KT 6SM BR SCT003 OVC008
      TEMPO 2206/2208 2SM BR BKN003
     FM220800 VRB03KT 3SM BR SCT002 OVC006
      TEMPO 2208/2212 1/2SM FG VV002
     FM221500 06005KT 4SM BR SCT006 OVC012
     FM221800 08006KT 6SM HZ OVC020
     FM222200 06004KT 6SM HZ SCT025 BKN040
      TEMPO 2304/2306 3SM BR BKN005 OVC015=

USA.gov is the U.S. government's official web portal to all federal, state and local government web resources and services.